sensor_id;sensor_type;location;lat;lon;timestamp;P1;durP1;ratioP1;P2;durP2;ratioP2
14584;SDS011;7379;51.506;11.876;2024-03-23T00:54:34;4.82;;;4.15;;
14584;SDS011;7379;51.506;11.876;2024-03-23T00:57:01;5.45;;;3.90;;
14584;SDS011;7379;51.506;11.876;2024-03-23T00:59:27;5.40;;;3.88;;
14584;SDS011;7379;51.506;11.876;2024-03-23T01:01:53;6.07;;;3.90;;
14584;SDS011;7379;51.506;11.876;2024-03-23T01:04:19;6.32;;;3.88;;
14584;SDS011;7379;51.506;11.876;2024-03-23T01:06:46;5.50;;;3.67;;
14584;SDS011;7379;51.506;11.876;2024-03-23T01:09:12;4.97;;;4.15;;
14584;SDS011;7379;51.506;11.876;2024-03-23T01:11:40;5.90;;;4.30;;
14584;SDS011;7379;51.506;11.876;2024-03-23T01:14:06;5.82;;;4.38;;
14584;SDS011;7379;51.506;11.876;2024-03-23T01:16:32;4.88;;;4.30;;
14584;SDS011;7379;51.506;11.876;2024-03-23T01:18:58;4.88;;;3.78;;
14584;SDS011;7379;51.506;11.876;2024-03-23T01:21:25;5.53;;;4.35;;
14584;SDS011;7379;51.506;11.876;2024-03-23T01:23:50;6.50;;;4.13;;
14584;SDS011;7379;51.506;11.876;2024-03-23T01:26:17;6.05;;;4.60;;
14584;SDS011;7379;51.506;11.876;2024-03-23T01:28:44;4.88;;;4.38;;
14584;SDS011;7379;51.506;11.876;2024-03-23T01:31:11;7.75;;;5.00;;
14584;SDS011;7379;51.506;11.876;2024-03-23T01:33:36;6.00;;;4.53;;
14584;SDS011;7379;51.506;11.876;2024-03-23T01:36:03;6.30;;;4.40;;
14584;SDS011;7379;51.506;11.876;2024-03-23T01:38:30;6.45;;;4.72;;
14584;SDS011;7379;51.506;11.876;2024-03-23T01:40:56;5.85;;;4.78;;
14584;SDS011;7379;51.506;11.876;2024-03-23T01:43:22;7.45;;;4.88;;
14584;SDS011;7379;51.506;11.876;2024-03-23T01:45:50;6.22;;;4.68;;
14584;SDS011;7379;51.506;11.876;2024-03-23T01:48:18;5.03;;;4.30;;
14584;SDS011;7379;51.506;11.876;2024-03-23T01:50:45;6.53;;;5.00;;
14584;SDS011;7379;51.506;11.876;2024-03-23T01:53:11;6.97;;;4.97;;
14584;SDS011;7379;51.506;11.876;2024-03-23T01:55:42;6.05;;;4.75;;
14584;SDS011;7379;51.506;11.876;2024-03-23T01:58:08;6.68;;;4.50;;
14584;SDS011;7379;51.506;11.876;2024-03-23T02:00:34;6.95;;;4.70;;
14584;SDS011;7379;51.506;11.876;2024-03-23T02:03:01;8.02;;;4.75;;
14584;SDS011;7379;51.506;11.876;2024-03-23T02:05:28;6.50;;;4.90;;
14584;SDS011;7379;51.506;11.876;2024-03-23T02:07:54;6.72;;;4.53;;
14584;SDS011;7379;51.506;11.876;2024-03-23T02:10:21;6.47;;;4.93;;
14584;SDS011;7379;51.506;11.876;2024-03-23T02:12:46;5.68;;;4.97;;
14584;SDS011;7379;51.506;11.876;2024-03-23T02:15:13;5.88;;;4.85;;
14584;SDS011;7379;51.506;11.876;2024-03-23T02:17:39;6.07;;;4.93;;
14584;SDS011;7379;51.506;11.876;2024-03-23T02:20:07;6.03;;;4.57;;
14584;SDS011;7379;51.506;11.876;2024-03-23T02:22:35;7.18;;;4.50;;
14584;SDS011;7379;51.506;11.876;2024-03-23T02:25:04;6.30;;;4.78;;
14584;SDS011;7379;51.506;11.876;2024-03-23T02:27:30;5.43;;;4.18;;
14584;SDS011;7379;51.506;11.876;2024-03-23T02:29:57;5.38;;;4.47;;
14584;SDS011;7379;51.506;11.876;2024-03-23T02:32:23;7.32;;;4.75;;
14584;SDS011;7379;51.506;11.876;2024-03-23T02:34:50;6.25;;;4.63;;
14584;SDS011;7379;51.506;11.876;2024-03-23T02:37:15;6.82;;;4.65;;
14584;SDS011;7379;51.506;11.876;2024-03-23T02:39:42;6.13;;;4.32;;
14584;SDS011;7379;51.506;11.876;2024-03-23T02:42:09;5.35;;;4.30;;
14584;SDS011;7379;51.506;11.876;2024-03-23T02:44:36;6.13;;;4.20;;
14584;SDS011;7379;51.506;11.876;2024-03-23T02:47:01;7.40;;;4.47;;
14584;SDS011;7379;51.506;11.876;2024-03-23T02:49:28;5.10;;;4.57;;
14584;SDS011;7379;51.506;11.876;2024-03-23T02:51:54;4.93;;;4.40;;
14584;SDS011;7379;51.506;11.876;2024-03-23T02:54:20;6.25;;;4.60;;
14584;SDS011;7379;51.506;11.876;2024-03-23T02:56:46;5.53;;;4.43;;
14584;SDS011;7379;51.506;11.876;2024-03-23T02:59:14;7.10;;;4.63;;
14584;SDS011;7379;51.506;11.876;2024-03-23T03:01:40;6.15;;;4.63;;
14584;SDS011;7379;51.506;11.876;2024-03-23T03:04:06;7.88;;;4.50;;
14584;SDS011;7379;51.506;11.876;2024-03-23T03:06:32;5.68;;;4.72;;
14584;SDS011;7379;51.506;11.876;2024-03-23T03:08:59;6.97;;;4.63;;
14584;SDS011;7379;51.506;11.876;2024-03-23T03:11:24;5.85;;;4.80;;
14584;SDS011;7379;51.506;11.876;2024-03-23T03:13:51;5.57;;;4.53;;
14584;SDS011;7379;51.506;11.876;2024-03-23T03:16:18;6.03;;;4.40;;
14584;SDS011;7379;51.506;11.876;2024-03-23T03:18:45;5.85;;;4.57;;
14584;SDS011;7379;51.506;11.876;2024-03-23T03:21:11;8.15;;;4.63;;
14584;SDS011;7379;51.506;11.876;2024-03-23T03:23:38;6.22;;;5.13;;
14584;SDS011;7379;51.506;11.876;2024-03-23T03:26:04;6.13;;;4.70;;
14584;SDS011;7379;51.506;11.876;2024-03-23T03:28:31;5.68;;;4.70;;
14584;SDS011;7379;51.506;11.876;2024-03-23T03:30:57;7.45;;;5.13;;
14584;SDS011;7379;51.506;11.876;2024-03-23T03:33:25;8.45;;;5.13;;
14584;SDS011;7379;51.506;11.876;2024-03-23T03:35:51;6.78;;;5.05;;
14584;SDS011;7379;51.506;11.876;2024-03-23T03:38:18;6.72;;;5.22;;
14584;SDS011;7379;51.506;11.876;2024-03-23T03:40:44;6.35;;;4.80;;
14584;SDS011;7379;51.506;11.876;2024-03-23T03:43:11;5.72;;;4.65;;
14584;SDS011;7379;51.506;11.876;2024-03-23T03:45:36;5.13;;;4.60;;
14584;SDS011;7379;51.506;11.876;2024-03-23T03:48:03;6.50;;;5.03;;
14584;SDS011;7379;51.506;11.876;2024-03-23T03:50:30;5.88;;;4.75;;
14584;SDS011;7379;51.506;11.876;2024-03-23T03:52:57;7.75;;;4.78;;
14584;SDS011;7379;51.506;11.876;2024-03-23T03:55:23;6.72;;;4.80;;
14584;SDS011;7379;51.506;11.876;2024-03-23T03:57:49;6.60;;;4.80;;
14584;SDS011;7379;51.506;11.876;2024-03-23T04:00:15;6.35;;;4.85;;
14584;SDS011;7379;51.506;11.876;2024-03-23T04:02:42;7.25;;;5.22;;
14584;SDS011;7379;51.506;11.876;2024-03-23T04:05:08;6.28;;;4.75;;
14584;SDS011;7379;51.506;11.876;2024-03-23T04:07:36;6.30;;;5.22;;
14584;SDS011;7379;51.506;11.876;2024-03-23T04:10:01;7.95;;;5.45;;
14584;SDS011;7379;51.506;11.876;2024-03-23T04:12:32;5.97;;;4.97;;
14584;SDS011;7379;51.506;11.876;2024-03-23T04:14:58;6.70;;;4.97;;
14584;SDS011;7379;51.506;11.876;2024-03-23T04:17:24;7.72;;;5.15;;
14584;SDS011;7379;51.506;11.876;2024-03-23T04:19:51;6.45;;;5.07;;
14584;SDS011;7379;51.506;11.876;2024-03-23T04:22:19;6.13;;;4.95;;
14584;SDS011;7379;51.506;11.876;2024-03-23T04:24:46;5.93;;;4.78;;
14584;SDS011;7379;51.506;11.876;2024-03-23T04:27:12;8.45;;;5.57;;
14584;SDS011;7379;51.506;11.876;2024-03-23T04:29:39;8.48;;;4.88;;
14584;SDS011;7379;51.506;11.876;2024-03-23T04:32:05;6.63;;;5.28;;
14584;SDS011;7379;51.506;11.876;2024-03-23T04:34:31;6.68;;;5.28;;
14584;SDS011;7379;51.506;11.876;2024-03-23T04:36:58;6.63;;;5.45;;
14584;SDS011;7379;51.506;11.876;2024-03-23T04:39:24;6.63;;;5.30;;
14584;SDS011;7379;51.506;11.876;2024-03-23T04:41:52;7.68;;;5.63;;
14584;SDS011;7379;51.506;11.876;2024-03-23T04:44:18;7.55;;;6.00;;
14584;SDS011;7379;51.506;11.876;2024-03-23T04:46:45;6.15;;;5.50;;
14584;SDS011;7379;51.506;11.876;2024-03-23T04:49:12;7.45;;;5.82;;
14584;SDS011;7379;51.506;11.876;2024-03-23T04:51:38;7.28;;;5.10;;
14584;SDS011;7379;51.506;11.876;2024-03-23T04:54:10;7.55;;;6.40;;
14584;SDS011;7379;51.506;11.876;2024-03-23T04:56:36;7.55;;;6.38;;
14584;SDS011;7379;51.506;11.876;2024-03-23T04:59:04;10.43;;;6.45;;
14584;SDS011;7379;51.506;11.876;2024-03-23T05:01:30;8.55;;;6.78;;
14584;SDS011;7379;51.506;11.876;2024-03-23T05:03:57;8.38;;;7.13;;
14584;SDS011;7379;51.506;11.876;2024-03-23T05:06:22;9.27;;;6.80;;
14584;SDS011;7379;51.506;11.876;2024-03-23T05:08:49;9.05;;;7.22;;
14584;SDS011;7379;51.506;11.876;2024-03-23T05:11:15;8.85;;;7.35;;
14584;SDS011;7379;51.506;11.876;2024-03-23T05:13:42;8.88;;;6.93;;
14584;SDS011;7379;51.506;11.876;2024-03-23T05:16:09;7.90;;;6.45;;
14584;SDS011;7379;51.506;11.876;2024-03-23T05:18:35;9.13;;;6.97;;
14584;SDS011;7379;51.506;11.876;2024-03-23T05:21:01;8.57;;;7.32;;
14584;SDS011;7379;51.506;11.876;2024-03-23T05:23:28;9.85;;;7.40;;
14584;SDS011;7379;51.506;11.876;2024-03-23T05:25:54;9.65;;;7.50;;
14584;SDS011;7379;51.506;11.876;2024-03-23T05:28:21;8.82;;;7.72;;
14584;SDS011;7379;51.506;11.876;2024-03-23T05:30:49;11.40;;;7.75;;
14584;SDS011;7379;51.506;11.876;2024-03-23T05:33:18;11.20;;;8.73;;
14584;SDS011;7379;51.506;11.876;2024-03-23T05:35:44;10.90;;;8.80;;
14584;SDS011;7379;51.506;11.876;2024-03-23T05:38:11;9.45;;;8.07;;
14584;SDS011;7379;51.506;11.876;2024-03-23T05:40:38;13.52;;;9.38;;
14584;SDS011;7379;51.506;11.876;2024-03-23T05:43:05;12.40;;;8.80;;
14584;SDS011;7379;51.506;11.876;2024-03-23T05:45:32;12.82;;;8.77;;
14584;SDS011;7379;51.506;11.876;2024-03-23T05:47:57;11.65;;;8.90;;
14584;SDS011;7379;51.506;11.876;2024-03-23T05:50:25;11.07;;;9.02;;
14584;SDS011;7379;51.506;11.876;2024-03-23T05:52:51;12.43;;;9.27;;
14584;SDS011;7379;51.506;11.876;2024-03-23T05:55:18;10.55;;;8.52;;
14584;SDS011;7379;51.506;11.876;2024-03-23T05:57:43;11.90;;;8.70;;
14584;SDS011;7379;51.506;11.876;2024-03-23T06:00:10;13.70;;;8.95;;
14584;SDS011;7379;51.506;11.876;2024-03-23T06:02:41;9.70;;;7.97;;
14584;SDS011;7379;51.506;11.876;2024-03-23T06:05:09;10.55;;;7.03;;
14584;SDS011;7379;51.506;11.876;2024-03-23T06:07:36;10.23;;;6.50;;
14584;SDS011;7379;51.506;11.876;2024-03-23T06:10:03;9.77;;;6.40;;
14584;SDS011;7379;51.506;11.876;2024-03-23T06:12:30;8.38;;;6.70;;
14584;SDS011;7379;51.506;11.876;2024-03-23T06:14:56;7.65;;;5.68;;
14584;SDS011;7379;51.506;11.876;2024-03-23T06:17:22;8.38;;;6.07;;
14584;SDS011;7379;51.506;11.876;2024-03-23T06:19:49;6.85;;;5.22;;
14584;SDS011;7379;51.506;11.876;2024-03-23T06:22:15;6.43;;;4.82;;
14584;SDS011;7379;51.506;11.876;2024-03-23T06:24:43;6.57;;;4.63;;
14584;SDS011;7379;51.506;11.876;2024-03-23T06:27:09;5.70;;;4.28;;
14584;SDS011;7379;51.506;11.876;2024-03-23T06:29:36;6.80;;;4.35;;
14584;SDS011;7379;51.506;11.876;2024-03-23T06:32:01;5.63;;;3.90;;
14584;SDS011;7379;51.506;11.876;2024-03-23T06:34:28;5.20;;;3.45;;
14584;SDS011;7379;51.506;11.876;2024-03-23T06:36:55;5.57;;;3.47;;
14584;SDS011;7379;51.506;11.876;2024-03-23T06:39:21;3.97;;;2.97;;
14584;SDS011;7379;51.506;11.876;2024-03-23T06:41:52;4.40;;;3.20;;
14584;SDS011;7379;51.506;11.876;2024-03-23T06:44:20;4.80;;;3.40;;
14584;SDS011;7379;51.506;11.876;2024-03-23T06:46:46;4.03;;;2.90;;
14584;SDS011;7379;51.506;11.876;2024-03-23T06:49:13;4.70;;;3.00;;
14584;SDS011;7379;51.506;11.876;2024-03-23T06:51:40;4.30;;;2.90;;
14584;SDS011;7379;51.506;11.876;2024-03-23T06:54:07;4.97;;;3.00;;
14584;SDS011;7379;51.506;11.876;2024-03-23T06:56:33;5.53;;;2.90;;
14584;SDS011;7379;51.506;11.876;2024-03-23T06:59:01;5.80;;;2.83;;
14584;SDS011;7379;51.506;11.876;2024-03-23T07:01:26;4.05;;;2.67;;
14584;SDS011;7379;51.506;11.876;2024-03-23T07:03:53;3.35;;;2.38;;
14584;SDS011;7379;51.506;11.876;2024-03-23T07:06:19;3.60;;;2.30;;
14584;SDS011;7379;51.506;11.876;2024-03-23T07:08:46;3.72;;;2.20;;
14584;SDS011;7379;51.506;11.876;2024-03-23T07:11:12;4.63;;;2.40;;
14584;SDS011;7379;51.506;11.876;2024-03-23T07:13:44;4.93;;;2.63;;
14584;SDS011;7379;51.506;11.876;2024-03-23T07:16:11;4.25;;;2.30;;
14584;SDS011;7379;51.506;11.876;2024-03-23T07:18:38;4.63;;;2.08;;
14584;SDS011;7379;51.506;11.876;2024-03-23T07:21:04;3.97;;;2.00;;
14584;SDS011;7379;51.506;11.876;2024-03-23T07:23:32;4.38;;;2.17;;
14584;SDS011;7379;51.506;11.876;2024-03-23T07:25:58;4.43;;;2.05;;
14584;SDS011;7379;51.506;11.876;2024-03-23T07:28:25;4.15;;;2.40;;
14584;SDS011;7379;51.506;11.876;2024-03-23T07:31:03;4.63;;;2.30;;
14584;SDS011;7379;51.506;11.876;2024-03-23T07:33:32;4.82;;;2.40;;
14584;SDS011;7379;51.506;11.876;2024-03-23T07:35:58;3.92;;;2.10;;
14584;SDS011;7379;51.506;11.876;2024-03-23T07:38:26;3.03;;;2.00;;
14584;SDS011;7379;51.506;11.876;2024-03-23T07:40:52;4.00;;;2.30;;
14584;SDS011;7379;51.506;11.876;2024-03-23T07:43:28;2.75;;;1.90;;
14584;SDS011;7379;51.506;11.876;2024-03-23T07:45:53;5.30;;;1.98;;
14584;SDS011;7379;51.506;11.876;2024-03-23T07:48:21;3.00;;;2.00;;
14584;SDS011;7379;51.506;11.876;2024-03-23T07:50:54;3.70;;;1.70;;
14584;SDS011;7379;51.506;11.876;2024-03-23T07:53:23;2.35;;;1.70;;
14584;SDS011;7379;51.506;11.876;2024-03-23T07:55:52;3.30;;;1.83;;
14584;SDS011;7379;51.506;11.876;2024-03-23T07:58:20;2.45;;;1.60;;
14584;SDS011;7379;51.506;11.876;2024-03-23T08:00:46;3.55;;;1.67;;
14584;SDS011;7379;51.506;11.876;2024-03-23T08:03:12;2.90;;;1.98;;
14584;SDS011;7379;51.506;11.876;2024-03-23T08:05:38;2.95;;;1.80;;
14584;SDS011;7379;51.506;11.876;2024-03-23T08:08:06;3.65;;;1.70;;
14584;SDS011;7379;51.506;11.876;2024-03-23T08:10:32;2.72;;;1.60;;
14584;SDS011;7379;51.506;11.876;2024-03-23T08:12:58;2.53;;;1.80;;
14584;SDS011;7379;51.506;11.876;2024-03-23T08:15:24;2.13;;;1.60;;
14584;SDS011;7379;51.506;11.876;2024-03-23T08:17:51;2.45;;;1.60;;
14584;SDS011;7379;51.506;11.876;2024-03-23T08:20:17;2.80;;;1.83;;
14584;SDS011;7379;51.506;11.876;2024-03-23T08:22:43;2.42;;;1.88;;
14584;SDS011;7379;51.506;11.876;2024-03-23T08:25:10;3.42;;;2.00;;
14584;SDS011;7379;51.506;11.876;2024-03-23T08:27:37;2.80;;;1.70;;
14584;SDS011;7379;51.506;11.876;2024-03-23T08:30:03;3.22;;;1.88;;
14584;SDS011;7379;51.506;11.876;2024-03-23T08:32:30;2.72;;;1.88;;
14584;SDS011;7379;51.506;11.876;2024-03-23T08:34:56;2.33;;;1.63;;
14584;SDS011;7379;51.506;11.876;2024-03-23T08:37:22;2.13;;;1.55;;
14584;SDS011;7379;51.506;11.876;2024-03-23T08:39:50;3.45;;;1.63;;
14584;SDS011;7379;51.506;11.876;2024-03-23T08:42:19;2.08;;;1.60;;
14584;SDS011;7379;51.506;11.876;2024-03-23T08:44:46;2.28;;;1.50;;
14584;SDS011;7379;51.506;11.876;2024-03-23T08:47:14;2.28;;;1.65;;
14584;SDS011;7379;51.506;11.876;2024-03-23T08:49:40;1.77;;;1.50;;
14584;SDS011;7379;51.506;11.876;2024-03-23T08:52:06;3.30;;;1.55;;
14584;SDS011;7379;51.506;11.876;2024-03-23T08:54:32;2.67;;;1.65;;
14584;SDS011;7379;51.506;11.876;2024-03-23T08:56:59;2.35;;;1.50;;
14584;SDS011;7379;51.506;11.876;2024-03-23T08:59:26;2.03;;;1.70;;
14584;SDS011;7379;51.506;11.876;2024-03-23T09:01:53;2.08;;;1.67;;
14584;SDS011;7379;51.506;11.876;2024-03-23T09:04:19;1.98;;;1.38;;
14584;SDS011;7379;51.506;11.876;2024-03-23T09:06:46;2.25;;;1.60;;
14584;SDS011;7379;51.506;11.876;2024-03-23T09:09:13;2.42;;;1.55;;
14584;SDS011;7379;51.506;11.876;2024-03-23T09:11:39;1.75;;;1.40;;
14584;SDS011;7379;51.506;11.876;2024-03-23T09:14:05;3.40;;;1.40;;
14584;SDS011;7379;51.506;11.876;2024-03-23T09:16:32;1.50;;;1.40;;
14584;SDS011;7379;51.506;11.876;2024-03-23T09:18:59;1.80;;;1.50;;
14584;SDS011;7379;51.506;11.876;2024-03-23T09:21:25;2.17;;;1.60;;
14584;SDS011;7379;51.506;11.876;2024-03-23T09:23:51;2.50;;;1.67;;
14584;SDS011;7379;51.506;11.876;2024-03-23T09:26:17;2.70;;;1.60;;
14584;SDS011;7379;51.506;11.876;2024-03-23T09:28:43;1.98;;;1.58;;
14584;SDS011;7379;51.506;11.876;2024-03-23T09:31:09;2.08;;;1.55;;
14584;SDS011;7379;51.506;11.876;2024-03-23T09:33:40;1.60;;;1.50;;
14584;SDS011;7379;51.506;11.876;2024-03-23T09:36:07;1.55;;;1.45;;
14584;SDS011;7379;51.506;11.876;2024-03-23T09:38:34;2.42;;;1.70;;
14584;SDS011;7379;51.506;11.876;2024-03-23T09:41:00;2.75;;;1.80;;
14584;SDS011;7379;51.506;11.876;2024-03-23T09:43:32;2.05;;;1.80;;
14584;SDS011;7379;51.506;11.876;2024-03-23T09:45:58;2.03;;;1.83;;
14584;SDS011;7379;51.506;11.876;2024-03-23T09:48:25;2.80;;;2.03;;
14584;SDS011;7379;51.506;11.876;2024-03-23T09:50:52;2.53;;;2.00;;
14584;SDS011;7379;51.506;11.876;2024-03-23T09:53:19;3.15;;;2.30;;
14584;SDS011;7379;51.506;11.876;2024-03-23T09:55:45;2.95;;;2.65;;
14584;SDS011;7379;51.506;11.876;2024-03-23T09:58:12;2.70;;;2.50;;
14584;SDS011;7379;51.506;11.876;2024-03-23T10:00:38;3.17;;;2.50;;
14584;SDS011;7379;51.506;11.876;2024-03-23T10:03:05;2.72;;;2.50;;
14584;SDS011;7379;51.506;11.876;2024-03-23T10:05:31;2.72;;;2.50;;
14584;SDS011;7379;51.506;11.876;2024-03-23T10:08:00;3.10;;;2.63;;
14584;SDS011;7379;51.506;11.876;2024-03-23T10:10:43;2.97;;;2.40;;
14584;SDS011;7379;51.506;11.876;2024-03-23T10:13:11;3.20;;;2.40;;
14584;SDS011;7379;51.506;11.876;2024-03-23T10:15:48;2.40;;;2.20;;
14584;SDS011;7379;51.506;11.876;2024-03-23T10:18:21;2.92;;;2.28;;
14584;SDS011;7379;51.506;11.876;2024-03-23T10:20:50;3.28;;;2.30;;
14584;SDS011;7379;51.506;11.876;2024-03-23T10:23:18;3.17;;;2.28;;
14584;SDS011;7379;51.506;11.876;2024-03-23T10:25:44;3.20;;;2.20;;
14584;SDS011;7379;51.506;11.876;2024-03-23T10:28:11;2.78;;;2.03;;
14584;SDS011;7379;51.506;11.876;2024-03-23T10:30:37;4.88;;;2.28;;
14584;SDS011;7379;51.506;11.876;2024-03-23T10:33:07;6.30;;;2.20;;
14584;SDS011;7379;51.506;11.876;2024-03-23T10:35:34;5.22;;;2.15;;
14584;SDS011;7379;51.506;11.876;2024-03-23T10:38:00;3.80;;;2.08;;
14584;SDS011;7379;51.506;11.876;2024-03-23T10:40:30;4.10;;;2.22;;
14584;SDS011;7379;51.506;11.876;2024-03-23T10:42:57;2.85;;;1.88;;
14584;SDS011;7379;51.506;11.876;2024-03-23T10:45:23;3.50;;;2.00;;
14584;SDS011;7379;51.506;11.876;2024-03-23T10:47:50;4.68;;;2.22;;
14584;SDS011;7379;51.506;11.876;2024-03-23T10:50:17;4.70;;;2.05;;
14584;SDS011;7379;51.506;11.876;2024-03-23T10:52:45;2.88;;;2.00;;
14584;SDS011;7379;51.506;11.876;2024-03-23T10:55:12;3.38;;;1.90;;
14584;SDS011;7379;51.506;11.876;2024-03-23T10:57:44;5.85;;;2.13;;
14584;SDS011;7379;51.506;11.876;2024-03-23T11:00:14;5.15;;;2.45;;
14584;SDS011;7379;51.506;11.876;2024-03-23T11:02:42;3.72;;;2.40;;
14584;SDS011;7379;51.506;11.876;2024-03-23T11:07:56;5.35;;;2.40;;
14584;SDS011;7379;51.506;11.876;2024-03-23T11:10:25;6.13;;;2.30;;
14584;SDS011;7379;51.506;11.876;2024-03-23T11:12:55;3.45;;;2.10;;
14584;SDS011;7379;51.506;11.876;2024-03-23T11:15:21;3.75;;;1.92;;
14584;SDS011;7379;51.506;11.876;2024-03-23T11:18:01;4.82;;;2.38;;
14584;SDS011;7379;51.506;11.876;2024-03-23T11:20:31;2.75;;;1.92;;
14584;SDS011;7379;51.506;11.876;2024-03-23T11:22:58;3.05;;;2.08;;
14584;SDS011;7379;51.506;11.876;2024-03-23T11:25:25;4.07;;;2.00;;
14584;SDS011;7379;51.506;11.876;2024-03-23T11:27:53;3.50;;;2.00;;
14584;SDS011;7379;51.506;11.876;2024-03-23T11:30:21;3.72;;;2.10;;
14584;SDS011;7379;51.506;11.876;2024-03-23T11:32:49;3.22;;;2.08;;
14584;SDS011;7379;51.506;11.876;2024-03-23T11:38:08;4.43;;;2.10;;
14584;SDS011;7379;51.506;11.876;2024-03-23T11:40:35;3.70;;;1.77;;
14584;SDS011;7379;51.506;11.876;2024-03-23T11:43:03;3.00;;;1.90;;
14584;SDS011;7379;51.506;11.876;2024-03-23T11:45:35;3.20;;;1.75;;
14584;SDS011;7379;51.506;11.876;2024-03-23T11:48:03;3.47;;;1.80;;
14584;SDS011;7379;51.506;11.876;2024-03-23T11:50:33;4.25;;;1.80;;
14584;SDS011;7379;51.506;11.876;2024-03-23T11:53:06;3.42;;;2.00;;
14584;SDS011;7379;51.506;11.876;2024-03-23T11:55:38;2.97;;;1.90;;
14584;SDS011;7379;51.506;11.876;2024-03-23T11:58:09;2.72;;;1.83;;
14584;SDS011;7379;51.506;11.876;2024-03-23T12:00:36;2.95;;;1.73;;
14584;SDS011;7379;51.506;11.876;2024-03-23T12:03:03;3.40;;;2.00;;
14584;SDS011;7379;51.506;11.876;2024-03-23T12:05:29;2.25;;;1.60;;
14584;SDS011;7379;51.506;11.876;2024-03-23T12:10:40;3.08;;;1.73;;
14584;SDS011;7379;51.506;11.876;2024-03-23T12:13:07;3.45;;;2.05;;
14584;SDS011;7379;51.506;11.876;2024-03-23T12:15:32;2.97;;;2.00;;
14584;SDS011;7379;51.506;11.876;2024-03-23T12:18:07;2.53;;;1.90;;
14584;SDS011;7379;51.506;11.876;2024-03-23T12:20:33;3.55;;;2.15;;
14584;SDS011;7379;51.506;11.876;2024-03-23T12:23:09;3.15;;;2.20;;
14584;SDS011;7379;51.506;11.876;2024-03-23T12:25:36;3.05;;;1.90;;
14584;SDS011;7379;51.506;11.876;2024-03-23T12:28:04;4.13;;;2.35;;
14584;SDS011;7379;51.506;11.876;2024-03-23T12:30:31;3.10;;;2.30;;
14584;SDS011;7379;51.506;11.876;2024-03-23T12:32:58;4.70;;;2.63;;
14584;SDS011;7379;51.506;11.876;2024-03-23T12:35:25;3.95;;;2.65;;
14584;SDS011;7379;51.506;11.876;2024-03-23T12:37:52;3.90;;;2.30;;
14584;SDS011;7379;51.506;11.876;2024-03-23T12:40:17;4.88;;;2.80;;
14584;SDS011;7379;51.506;11.876;2024-03-23T12:42:44;4.97;;;2.90;;
14584;SDS011;7379;51.506;11.876;2024-03-23T12:45:10;6.15;;;2.83;;
14584;SDS011;7379;51.506;11.876;2024-03-23T12:47:36;5.75;;;3.00;;
14584;SDS011;7379;51.506;11.876;2024-03-23T12:50:02;7.10;;;2.67;;
14584;SDS011;7379;51.506;11.876;2024-03-23T12:52:32;5.22;;;2.90;;
14584;SDS011;7379;51.506;11.876;2024-03-23T12:54:58;5.72;;;2.70;;
14584;SDS011;7379;51.506;11.876;2024-03-23T12:57:25;5.65;;;3.03;;
14584;SDS011;7379;51.506;11.876;2024-03-23T12:59:50;5.85;;;2.97;;
14584;SDS011;7379;51.506;11.876;2024-03-23T13:02:18;7.15;;;3.38;;
14584;SDS011;7379;51.506;11.876;2024-03-23T13:04:44;5.70;;;3.17;;
14584;SDS011;7379;51.506;11.876;2024-03-23T13:07:12;7.70;;;3.10;;
14584;SDS011;7379;51.506;11.876;2024-03-23T13:09:39;6.47;;;3.50;;
14584;SDS011;7379;51.506;11.876;2024-03-23T13:12:06;6.00;;;3.10;;
14584;SDS011;7379;51.506;11.876;2024-03-23T13:14:32;8.23;;;3.47;;
14584;SDS011;7379;51.506;11.876;2024-03-23T13:16:59;6.68;;;3.58;;
14584;SDS011;7379;51.506;11.876;2024-03-23T13:19:25;6.05;;;3.63;;
14584;SDS011;7379;51.506;11.876;2024-03-23T13:21:55;6.60;;;3.85;;
14584;SDS011;7379;51.506;11.876;2024-03-23T13:24:21;6.90;;;3.42;;
14584;SDS011;7379;51.506;11.876;2024-03-23T13:26:50;6.32;;;3.83;;
14584;SDS011;7379;51.506;11.876;2024-03-23T13:29:17;7.28;;;3.83;;
14584;SDS011;7379;51.506;11.876;2024-03-23T13:31:43;7.53;;;3.40;;
14584;SDS011;7379;51.506;11.876;2024-03-23T13:34:09;5.03;;;3.78;;
14584;SDS011;7379;51.506;11.876;2024-03-23T13:36:36;7.35;;;4.03;;
14584;SDS011;7379;51.506;11.876;2024-03-23T13:39:02;6.88;;;3.88;;
14584;SDS011;7379;51.506;11.876;2024-03-23T13:41:31;7.70;;;3.53;;
14584;SDS011;7379;51.506;11.876;2024-03-23T13:43:58;7.57;;;4.00;;
14584;SDS011;7379;51.506;11.876;2024-03-23T13:46:25;5.50;;;3.35;;
14584;SDS011;7379;51.506;11.876;2024-03-23T13:48:50;6.57;;;3.60;;
14584;SDS011;7379;51.506;11.876;2024-03-23T13:51:22;5.00;;;3.17;;
14584;SDS011;7379;51.506;11.876;2024-03-23T13:53:49;4.82;;;3.00;;
14584;SDS011;7379;51.506;11.876;2024-03-23T13:56:16;5.68;;;2.95;;
14584;SDS011;7379;51.506;11.876;2024-03-23T13:58:41;4.10;;;3.00;;
14584;SDS011;7379;51.506;11.876;2024-03-23T14:01:13;4.03;;;2.70;;
14584;SDS011;7379;51.506;11.876;2024-03-23T14:03:39;3.58;;;2.50;;
14584;SDS011;7379;51.506;11.876;2024-03-23T14:06:06;6.72;;;2.70;;
14584;SDS011;7379;51.506;11.876;2024-03-23T14:08:33;3.50;;;2.10;;
14584;SDS011;7379;51.506;11.876;2024-03-23T14:11:01;3.33;;;2.50;;
14584;SDS011;7379;51.506;11.876;2024-03-23T14:13:28;3.03;;;2.10;;
14584;SDS011;7379;51.506;11.876;2024-03-23T14:15:55;2.65;;;2.30;;
14584;SDS011;7379;51.506;11.876;2024-03-23T14:18:23;2.10;;;1.90;;
14584;SDS011;7379;51.506;11.876;2024-03-23T14:20:51;3.55;;;2.10;;
14584;SDS011;7379;51.506;11.876;2024-03-23T14:23:17;3.40;;;2.22;;
14584;SDS011;7379;51.506;11.876;2024-03-23T14:25:43;3.42;;;2.20;;
14584;SDS011;7379;51.506;11.876;2024-03-23T14:28:10;3.38;;;2.17;;
14584;SDS011;7379;51.506;11.876;2024-03-23T14:30:40;2.33;;;2.13;;
14584;SDS011;7379;51.506;11.876;2024-03-23T14:33:06;3.08;;;2.20;;
14584;SDS011;7379;51.506;11.876;2024-03-23T14:35:34;2.55;;;2.20;;
14584;SDS011;7379;51.506;11.876;2024-03-23T14:38:00;3.78;;;2.35;;
14584;SDS011;7379;51.506;11.876;2024-03-23T14:40:27;3.53;;;2.50;;
14584;SDS011;7379;51.506;11.876;2024-03-23T14:42:53;2.65;;;2.42;;
14584;SDS011;7379;51.506;11.876;2024-03-23T14:45:20;4.55;;;2.80;;
14584;SDS011;7379;51.506;11.876;2024-03-23T14:47:46;4.82;;;3.03;;
14584;SDS011;7379;51.506;11.876;2024-03-23T14:50:12;4.50;;;2.78;;
14584;SDS011;7379;51.506;11.876;2024-03-23T14:52:41;3.08;;;2.58;;
14584;SDS011;7379;51.506;11.876;2024-03-23T14:55:10;5.60;;;2.80;;
14584;SDS011;7379;51.506;11.876;2024-03-23T14:57:36;4.50;;;3.10;;
14584;SDS011;7379;51.506;11.876;2024-03-23T15:00:04;3.15;;;2.83;;
14584;SDS011;7379;51.506;11.876;2024-03-23T15:02:31;3.97;;;2.88;;
14584;SDS011;7379;51.506;11.876;2024-03-23T15:04:58;3.92;;;3.00;;
14584;SDS011;7379;51.506;11.876;2024-03-23T15:07:24;4.53;;;3.20;;
14584;SDS011;7379;51.506;11.876;2024-03-23T15:09:52;4.18;;;2.95;;
14584;SDS011;7379;51.506;11.876;2024-03-23T15:12:18;3.58;;;3.10;;
14584;SDS011;7379;51.506;11.876;2024-03-23T15:14:46;5.13;;;3.70;;
14584;SDS011;7379;51.506;11.876;2024-03-23T15:17:12;4.50;;;3.53;;
14584;SDS011;7379;51.506;11.876;2024-03-23T15:19:39;4.88;;;3.35;;
14584;SDS011;7379;51.506;11.876;2024-03-23T15:22:06;5.53;;;3.63;;
14584;SDS011;7379;51.506;11.876;2024-03-23T15:24:33;4.00;;;3.53;;
14584;SDS011;7379;51.506;11.876;2024-03-23T15:27:02;4.57;;;3.20;;
14584;SDS011;7379;51.506;11.876;2024-03-23T15:29:29;4.95;;;3.30;;
14584;SDS011;7379;51.506;11.876;2024-03-23T15:31:54;4.43;;;3.28;;
14584;SDS011;7379;51.506;11.876;2024-03-23T15:34:21;4.93;;;3.22;;
14584;SDS011;7379;51.506;11.876;2024-03-23T15:36:47;5.43;;;3.65;;
14584;SDS011;7379;51.506;11.876;2024-03-23T15:39:15;5.95;;;3.28;;
14584;SDS011;7379;51.506;11.876;2024-03-23T15:41:41;5.55;;;3.30;;
14584;SDS011;7379;51.506;11.876;2024-03-23T15:44:11;4.53;;;3.28;;
14584;SDS011;7379;51.506;11.876;2024-03-23T15:46:37;3.72;;;3.05;;
14584;SDS011;7379;51.506;11.876;2024-03-23T15:49:04;4.43;;;3.70;;